createdAt,value
2019-03-17T00:00:55.351Z,9.60
2019-03-17T00:03:24.258Z,9.60
2019-03-17T00:05:53.651Z,9.60
2019-03-17T00:08:22.556Z,9.60
2019-03-17T00:10:52.807Z,9.60
2019-03-17T00:13:21.895Z,9.60
2019-03-17T00:15:50.817Z,9.60
2019-03-17T00:18:19.868Z,9.60
2019-03-17T00:20:49.088Z,9.60
2019-03-17T00:23:18.007Z,9.60
2019-03-17T00:25:47.121Z,9.60
2019-03-17T00:28:20.929Z,9.50
2019-03-17T00:30:49.872Z,9.50
2019-03-17T00:33:21.906Z,9.60
2019-03-17T00:35:50.812Z,9.60
2019-03-17T00:38:19.709Z,9.60
2019-03-17T00:40:48.623Z,9.60
2019-03-17T00:43:17.715Z,9.60
2019-03-17T00:45:48.573Z,9.60
2019-03-17T00:48:17.220Z,9.50
2019-03-17T00:50:48.774Z,9.50
2019-03-17T00:53:16.785Z,9.50
2019-03-17T00:55:45.727Z,9.50
2019-03-17T00:58:14.581Z,9.50
2019-03-17T01:00:43.546Z,9.50
2019-03-17T01:03:12.437Z,9.40
2019-03-17T01:05:41.487Z,9.50
2019-03-17T01:08:10.876Z,9.40
2019-03-17T01:10:39.995Z,9.40
2019-03-17T01:13:08.938Z,9.40
2019-03-17T01:15:37.840Z,9.40
2019-03-17T01:18:06.821Z,9.40
2019-03-17T01:20:35.904Z,9.40
2019-03-17T01:23:04.849Z,9.40
2019-03-17T01:25:34.314Z,9.40
2019-03-17T01:28:03.286Z,9.40
2019-03-17T01:30:32.192Z,9.40
2019-03-17T01:33:01.070Z,9.40
2019-03-17T01:35:32.572Z,9.40
2019-03-17T01:38:00.712Z,9.40
2019-03-17T01:40:29.571Z,9.40
2019-03-17T01:42:58.458Z,9.40
2019-03-17T01:45:27.481Z,9.40
2019-03-17T01:47:56.304Z,9.40
2019-03-17T01:50:25.169Z,9.50
2019-03-17T01:52:54.184Z,9.50
2019-03-17T01:55:23.084Z,9.40
2019-03-17T01:57:51.961Z,9.40
2019-03-17T02:00:20.866Z,9.40
2019-03-17T02:02:49.714Z,9.50
2019-03-17T02:05:22.306Z,9.50
2019-03-17T02:07:49.448Z,9.50
2019-03-17T02:10:18.354Z,9.50
2019-03-17T02:12:47.210Z,9.50
2019-03-17T02:15:16.117Z,9.50
2019-03-17T02:17:45.055Z,9.50
2019-03-17T02:20:14.007Z,9.50
2019-03-17T02:22:42.895Z,9.50
2019-03-17T02:25:11.741Z,9.50
2019-03-17T02:27:40.818Z,9.50
2019-03-17T02:30:10.491Z,9.50
2019-03-17T02:32:39.341Z,9.40
2019-03-17T02:35:08.286Z,9.50
2019-03-17T02:37:37.204Z,9.50
2019-03-17T02:40:06.250Z,9.50
2019-03-17T02:42:35.156Z,9.50
2019-03-17T02:45:04.232Z,9.40
2019-03-17T02:47:33.067Z,9.50
2019-03-17T02:50:01.976Z,9.50
2019-03-17T02:52:30.854Z,9.50
2019-03-17T02:54:59.690Z,9.50
2019-03-17T02:57:28.541Z,9.50
2019-03-17T02:59:57.444Z,9.50
2019-03-17T03:02:26.343Z,9.50
2019-03-17T03:04:55.303Z,9.50
2019-03-17T03:07:24.194Z,9.50
2019-03-17T03:09:56.160Z,9.50
2019-03-17T03:12:25.182Z,9.50
2019-03-17T03:14:56.610Z,9.50
2019-03-17T03:17:25.531Z,9.50
2019-03-17T03:19:54.451Z,9.50
2019-03-17T03:22:23.370Z,9.50
2019-03-17T03:24:52.331Z,9.50
2019-03-17T03:27:21.217Z,9.50
2019-03-17T03:29:50.300Z,9.40
2019-03-17T03:32:19.155Z,9.40
2019-03-17T03:34:48.154Z,9.40
2019-03-17T03:37:19.424Z,9.40
2019-03-17T03:39:48.256Z,9.40
2019-03-17T03:42:17.175Z,9.40
2019-03-17T03:44:46.143Z,9.40
2019-03-17T03:47:15.181Z,9.40
2019-03-17T03:49:44.098Z,9.40
2019-03-17T03:52:12.943Z,9.40
2019-03-17T03:54:41.893Z,9.40
2019-03-17T03:57:11.042Z,9.40
2019-03-17T03:59:39.913Z,9.40
2019-03-17T04:02:08.836Z,9.40
2019-03-17T04:04:37.758Z,9.30
2019-03-17T04:07:06.584Z,9.30
2019-03-17T04:09:35.434Z,9.30
2019-03-17T04:12:04.709Z,9.30
2019-03-17T04:14:33.566Z,9.30
2019-03-17T04:17:02.573Z,9.30
2019-03-17T04:19:31.756Z,9.20
2019-03-17T04:22:00.675Z,9.20
2019-03-17T04:24:29.796Z,9.20
2019-03-17T04:26:58.779Z,9.30
2019-03-17T04:29:27.753Z,9.30
2019-03-17T04:31:56.652Z,9.30
2019-03-17T04:34:25.507Z,9.30
2019-03-17T04:36:54.380Z,9.30
2019-03-17T04:39:23.205Z,9.20
2019-03-17T04:41:52.100Z,9.20
2019-03-17T04:44:21.340Z,9.20
2019-03-17T04:46:50.251Z,9.20
2019-03-17T04:49:19.065Z,9.20
2019-03-17T04:51:47.918Z,9.20
2019-03-17T04:54:16.759Z,9.20
2019-03-17T04:56:45.630Z,9.20
2019-03-17T04:59:14.494Z,9.20
2019-03-17T05:01:43.395Z,9.20
2019-03-17T05:04:12.326Z,9.20
2019-03-17T05:06:52.654Z,9.20
2019-03-17T05:09:14.601Z,9.20
2019-03-17T05:11:43.400Z,9.20
2019-03-17T05:14:12.233Z,9.30
2019-03-17T05:16:41.182Z,9.20
2019-03-17T05:19:10.186Z,9.20
2019-03-17T05:21:39.034Z,9.30
2019-03-17T05:24:07.896Z,9.30
2019-03-17T05:26:36.898Z,9.30
2019-03-17T05:29:05.904Z,9.30
2019-03-17T05:31:34.720Z,9.30
2019-03-17T05:34:03.566Z,9.30
2019-03-17T05:36:32.413Z,9.40
2019-03-17T05:39:01.534Z,9.40
2019-03-17T05:41:30.361Z,9.40
2019-03-17T05:43:59.223Z,9.40
2019-03-17T05:46:28.121Z,9.50
2019-03-17T05:48:57.034Z,9.50
2019-03-17T05:51:25.926Z,9.50
2019-03-17T05:53:56.136Z,9.50
2019-03-17T05:56:24.958Z,9.50
2019-03-17T05:58:53.794Z,9.50
2019-03-17T06:01:22.740Z,9.50
2019-03-17T06:03:51.632Z,9.50
2019-03-17T06:06:23.016Z,9.50
2019-03-17T06:08:51.994Z,9.60
2019-03-17T06:11:20.964Z,9.60
2019-03-17T06:13:51.316Z,9.60
2019-03-17T06:16:20.347Z,9.70
2019-03-17T06:18:52.334Z,9.70
2019-03-17T06:21:21.299Z,9.70
2019-03-17T06:23:50.338Z,9.80
2019-03-17T06:26:19.471Z,9.80
2019-03-17T06:28:48.326Z,9.80
2019-03-17T06:31:17.267Z,9.80
2019-03-17T06:33:46.077Z,9.90
2019-03-17T06:36:14.991Z,9.90
2019-03-17T06:38:43.907Z,10.00
2019-03-17T06:41:12.760Z,10.00
2019-03-17T06:43:41.661Z,10.00
2019-03-17T06:46:14.773Z,10.00
2019-03-17T06:48:43.628Z,10.00
2019-03-17T06:51:12.508Z,10.00
2019-03-17T06:53:41.438Z,10.00
2019-03-17T06:56:10.439Z,10.10
2019-03-17T06:58:39.362Z,10.10
2019-03-17T07:01:08.250Z,10.10
2019-03-17T07:03:37.139Z,10.20
2019-03-17T07:06:06.890Z,10.30
2019-03-17T07:08:36.545Z,10.30
2019-03-17T07:11:06.062Z,10.40
2019-03-17T07:13:34.906Z,10.40
2019-03-17T07:16:03.884Z,10.50
2019-03-17T07:18:32.801Z,10.50
2019-03-17T07:21:02.411Z,10.60
2019-03-17T07:23:34.097Z,10.60
2019-03-17T07:26:01.945Z,10.60
2019-03-17T07:28:30.824Z,10.50
2019-03-17T07:30:59.667Z,10.40
2019-03-17T07:33:28.578Z,10.40
2019-03-17T07:35:57.547Z,10.40
2019-03-17T07:38:26.478Z,10.40
2019-03-17T07:40:55.364Z,10.40
2019-03-17T07:43:24.929Z,10.40
2019-03-17T07:45:53.870Z,10.40
2019-03-17T07:48:22.756Z,10.50
2019-03-17T07:50:51.710Z,10.40
2019-03-17T07:53:20.635Z,10.40
2019-03-17T07:55:49.492Z,10.40
2019-03-17T07:58:18.363Z,10.50
2019-03-17T08:00:47.323Z,10.60
2019-03-17T08:03:16.352Z,10.70
2019-03-17T08:05:45.283Z,10.80
2019-03-17T08:08:16.513Z,10.90
2019-03-17T08:10:45.553Z,11.00
2019-03-17T08:13:14.456Z,11.10
2019-03-17T08:15:43.399Z,11.10
2019-03-17T08:18:12.534Z,11.20
2019-03-17T08:20:41.423Z,11.20
2019-03-17T08:23:10.385Z,11.30
2019-03-17T08:25:39.462Z,11.30
2019-03-17T08:28:08.467Z,11.40
2019-03-17T08:30:37.483Z,11.40
2019-03-17T08:33:06.395Z,11.50
2019-03-17T08:35:35.357Z,11.50
2019-03-17T08:38:04.367Z,11.80
2019-03-17T08:40:33.183Z,12.00
2019-03-17T08:43:02.138Z,12.30
2019-03-17T08:45:31.137Z,12.70
2019-03-17T08:48:00.170Z,13.50
2019-03-17T08:50:32.143Z,13.90
2019-03-17T08:53:01.104Z,14.70
2019-03-17T08:55:30.032Z,15.20
2019-03-17T08:57:59.020Z,15.60
2019-03-17T09:00:27.880Z,15.60
2019-03-17T09:02:56.814Z,15.80
2019-03-17T09:05:25.663Z,15.80
2019-03-17T09:07:54.521Z,15.70
2019-03-17T09:10:23.322Z,15.40
2019-03-17T09:12:52.431Z,15.10
2019-03-17T09:15:21.430Z,15.30
2019-03-17T09:17:50.398Z,15.00
2019-03-17T09:20:19.362Z,15.10
2019-03-17T09:22:49.389Z,15.40
2019-03-17T09:25:18.368Z,15.50
2019-03-17T09:27:50.581Z,15.70
2019-03-17T09:30:19.506Z,15.90
2019-03-17T09:32:48.525Z,15.60
2019-03-17T09:35:17.613Z,15.10
2019-03-17T09:37:46.544Z,14.70
2019-03-17T09:40:15.411Z,14.40
2019-03-17T09:42:45.694Z,14.20
2019-03-17T09:45:14.713Z,14.20
2019-03-17T09:47:46.894Z,14.10
2019-03-17T09:50:18.317Z,14.10
2019-03-17T09:52:47.211Z,14.00
2019-03-17T09:55:16.687Z,14.10
2019-03-17T09:57:45.678Z,14.20
2019-03-17T10:00:15.182Z,14.30
2019-03-17T10:02:44.463Z,14.30
2019-03-17T10:05:13.590Z,14.30
2019-03-17T10:07:42.715Z,14.30
2019-03-17T10:10:12.747Z,14.20
2019-03-17T10:12:41.786Z,14.10
2019-03-17T10:15:12.245Z,14.00
2019-03-17T10:17:41.438Z,14.10
2019-03-17T10:20:16.316Z,14.10
2019-03-17T10:22:45.495Z,14.10
2019-03-17T10:25:14.445Z,14.20
2019-03-17T10:27:43.522Z,14.40
2019-03-17T10:30:13.329Z,14.40
2019-03-17T10:32:42.333Z,14.40
2019-03-17T10:35:11.374Z,14.30
2019-03-17T10:37:40.325Z,14.10
2019-03-17T10:40:12.079Z,13.90
2019-03-17T10:42:41.151Z,13.90
2019-03-17T10:45:11.484Z,13.90
2019-03-17T10:47:40.622Z,14.00
2019-03-17T10:50:12.214Z,14.20
2019-03-17T10:52:41.472Z,14.40
2019-03-17T10:55:10.915Z,14.60
2019-03-17T10:57:39.990Z,14.70
2019-03-17T11:00:11.768Z,14.80
2019-03-17T11:02:40.735Z,14.80
2019-03-17T11:05:10.175Z,14.80
2019-03-17T11:07:39.204Z,14.80
2019-03-17T11:10:08.433Z,14.80
2019-03-17T11:12:37.447Z,14.70
2019-03-17T11:15:07.643Z,14.50
2019-03-17T11:17:36.669Z,14.40
2019-03-17T11:20:09.179Z,14.40
2019-03-17T11:22:38.261Z,14.40
2019-03-17T11:25:07.660Z,14.30
2019-03-17T11:27:36.665Z,14.30
2019-03-17T11:30:06.336Z,14.30
2019-03-17T11:32:35.330Z,14.40
2019-03-17T11:35:04.328Z,14.50
2019-03-17T11:37:33.185Z,14.40
2019-03-17T11:40:03.173Z,14.30
2019-03-17T11:42:32.105Z,14.10
2019-03-17T11:45:01.037Z,14.10
2019-03-17T11:47:30.010Z,14.00
2019-03-17T11:49:58.956Z,14.10
2019-03-17T11:52:28.190Z,14.10
2019-03-17T11:55:00.363Z,14.00
2019-03-17T11:57:29.383Z,13.90
2019-03-17T11:59:58.276Z,13.70
2019-03-17T12:02:28.157Z,13.70
2019-03-17T12:04:59.340Z,13.60
2019-03-17T12:07:28.323Z,13.60
2019-03-17T12:09:57.266Z,13.50
2019-03-17T12:12:26.256Z,13.50
2019-03-17T12:14:55.599Z,13.50
2019-03-17T12:17:26.272Z,13.60
2019-03-17T12:19:55.409Z,13.70
2019-03-17T12:22:24.413Z,13.70
2019-03-17T12:24:53.772Z,13.60
2019-03-17T12:27:22.785Z,13.50
2019-03-17T12:29:51.918Z,13.40
2019-03-17T12:32:21.392Z,13.40
2019-03-17T12:34:50.296Z,13.30
2019-03-17T12:37:19.271Z,13.30
2019-03-17T12:39:48.221Z,13.30
2019-03-17T12:42:17.144Z,13.30
2019-03-17T12:44:46.130Z,13.40
2019-03-17T12:47:15.055Z,13.40
2019-03-17T12:49:43.952Z,13.40
2019-03-17T12:52:12.870Z,13.40
2019-03-17T12:54:41.845Z,13.30
2019-03-17T12:57:10.842Z,13.30
2019-03-17T12:59:39.876Z,13.20
2019-03-17T13:02:08.880Z,13.10
2019-03-17T13:04:37.907Z,13.00
2019-03-17T13:07:06.967Z,12.60
2019-03-17T13:09:35.999Z,11.80
2019-03-17T13:12:04.958Z,11.20
2019-03-17T13:14:34.085Z,10.80
2019-03-17T13:17:03.153Z,10.50
2019-03-17T13:19:32.038Z,10.30
2019-03-17T13:22:01.262Z,10.20
2019-03-17T13:24:30.422Z,10.10
2019-03-17T13:26:59.670Z,10.00
2019-03-17T13:29:28.677Z,9.90
2019-03-17T13:31:57.810Z,9.90
2019-03-17T13:34:26.884Z,9.80
2019-03-17T13:36:55.875Z,9.60
2019-03-17T13:39:24.848Z,9.50
2019-03-17T13:41:53.989Z,9.50
2019-03-17T13:44:22.903Z,9.40
2019-03-17T13:46:51.917Z,9.40
2019-03-17T13:49:20.942Z,9.30
2019-03-17T13:51:49.872Z,9.30
2019-03-17T13:54:18.805Z,9.30
2019-03-17T13:56:48.885Z,9.30
2019-03-17T13:59:20.581Z,9.30
2019-03-17T14:01:51.981Z,9.30
2019-03-17T14:04:20.983Z,9.30
2019-03-17T14:06:50.157Z,9.30
2019-03-17T14:09:19.179Z,9.30
2019-03-17T14:11:48.194Z,9.20
2019-03-17T14:14:17.275Z,9.20
2019-03-17T14:16:46.226Z,9.20
2019-03-17T14:19:24.768Z,9.30
2019-03-17T14:21:53.712Z,9.30
2019-03-17T14:24:22.764Z,9.40
2019-03-17T14:26:51.794Z,9.40
2019-03-17T14:29:20.673Z,9.40
2019-03-17T14:31:49.699Z,9.40
2019-03-17T14:34:22.060Z,9.40
2019-03-17T14:36:50.892Z,9.50
2019-03-17T14:39:19.839Z,9.50
2019-03-17T14:41:48.682Z,9.50
2019-03-17T14:44:19.188Z,9.50
2019-03-17T14:46:48.426Z,9.50
2019-03-17T14:49:17.297Z,9.50
2019-03-17T14:51:46.209Z,9.40
2019-03-17T14:54:17.550Z,9.40
2019-03-17T14:56:49.691Z,9.40
2019-03-17T14:59:18.608Z,9.40
2019-03-17T15:01:47.557Z,9.40
2019-03-17T15:04:16.402Z,9.30
2019-03-17T15:06:45.291Z,9.30
2019-03-17T15:09:14.224Z,9.30
2019-03-17T15:11:43.119Z,9.40
2019-03-17T15:14:12.060Z,9.40
2019-03-17T15:16:43.826Z,9.50
2019-03-17T15:19:14.251Z,9.50
2019-03-17T15:21:43.377Z,9.60
2019-03-17T15:24:15.548Z,9.60
2019-03-17T15:26:44.502Z,9.60
2019-03-17T15:29:13.420Z,9.60
2019-03-17T15:31:42.469Z,9.60
2019-03-17T15:34:11.358Z,9.70
2019-03-17T15:36:40.326Z,9.70
2019-03-17T15:39:10.558Z,9.70
2019-03-17T15:41:39.512Z,9.70
2019-03-17T15:44:08.573Z,9.70
2019-03-17T15:46:42.235Z,9.70
2019-03-17T15:49:11.178Z,9.70
2019-03-17T15:51:40.293Z,9.60
2019-03-17T15:54:11.855Z,9.60
2019-03-17T15:56:41.018Z,9.50
2019-03-17T15:59:09.899Z,9.50
2019-03-17T16:01:38.861Z,9.50
2019-03-17T16:04:07.819Z,9.40
2019-03-17T16:06:36.760Z,9.40
2019-03-17T16:09:08.464Z,9.40
2019-03-17T16:11:40.050Z,9.40
2019-03-17T16:14:09.024Z,9.40
2019-03-17T16:16:37.921Z,9.40
2019-03-17T16:19:07.235Z,9.30
2019-03-17T16:21:36.422Z,9.30
2019-03-17T16:24:05.656Z,9.30
2019-03-17T16:26:36.494Z,9.30
2019-03-17T16:29:05.600Z,9.30
2019-03-17T16:31:34.616Z,9.20
2019-03-17T16:34:03.691Z,9.20
2019-03-17T16:36:32.843Z,9.20
2019-03-17T16:39:02.112Z,9.20
2019-03-17T16:41:42.642Z,9.10
2019-03-17T16:44:01.778Z,9.10
2019-03-17T16:46:30.720Z,9.10
2019-03-17T16:48:59.750Z,9.10
2019-03-17T16:51:28.830Z,9.10
2019-03-17T16:53:57.700Z,9.10
2019-03-17T16:56:26.717Z,9.00
2019-03-17T16:58:55.731Z,9.00
2019-03-17T17:01:24.706Z,9.00
2019-03-17T17:03:53.795Z,9.00
2019-03-17T17:06:24.121Z,9.00
2019-03-17T17:08:54.768Z,9.00
2019-03-17T17:11:24.572Z,9.00
2019-03-17T17:13:54.715Z,9.00
2019-03-17T17:16:29.743Z,9.00
2019-03-17T17:18:58.930Z,9.00
2019-03-17T17:21:27.821Z,9.00
2019-03-17T17:23:59.015Z,8.80
2019-03-17T17:26:37.266Z,8.70
2019-03-17T17:28:59.225Z,8.60
2019-03-17T17:31:28.166Z,8.50
2019-03-17T17:33:57.140Z,8.40
2019-03-17T17:36:26.210Z,8.40
2019-03-17T17:38:55.167Z,8.40
2019-03-17T17:41:24.236Z,8.40
2019-03-17T17:43:53.378Z,8.40
2019-03-17T17:46:22.399Z,8.40
2019-03-17T17:48:52.045Z,8.30
2019-03-17T17:51:20.916Z,8.30
2019-03-17T17:53:49.910Z,8.30
2019-03-17T17:56:18.859Z,8.20
2019-03-17T17:58:48.353Z,8.20
2019-03-17T18:01:19.446Z,8.10
2019-03-17T18:03:51.741Z,8.10
2019-03-17T18:06:24.166Z,8.10
2019-03-17T18:08:53.386Z,8.00
2019-03-17T18:11:22.892Z,8.00
2019-03-17T18:13:51.999Z,7.90
2019-03-17T18:16:21.035Z,7.90
2019-03-17T18:18:51.694Z,7.90
2019-03-17T18:21:21.032Z,7.80
2019-03-17T18:23:50.640Z,7.80
2019-03-17T18:26:19.879Z,7.70
2019-03-17T18:28:48.944Z,7.60
2019-03-17T18:31:18.046Z,7.60
2019-03-17T18:33:47.142Z,7.60
2019-03-17T18:36:16.744Z,7.60
2019-03-17T18:38:45.902Z,7.60
2019-03-17T18:41:14.947Z,7.50
2019-03-17T18:43:49.371Z,7.50
2019-03-17T18:46:18.580Z,7.50
2019-03-17T18:48:47.854Z,7.50
2019-03-17T18:51:16.946Z,7.50
2019-03-17T18:53:45.963Z,7.40
2019-03-17T18:56:15.503Z,7.40
2019-03-17T18:58:44.509Z,7.30
2019-03-17T19:01:13.468Z,7.30
2019-03-17T19:03:42.532Z,7.30
2019-03-17T19:06:14.638Z,7.20
2019-03-17T19:08:43.842Z,7.30
2019-03-17T19:11:13.092Z,7.20
2019-03-17T19:13:42.153Z,7.20
2019-03-17T19:16:11.016Z,7.20
2019-03-17T19:18:39.993Z,7.20
2019-03-17T19:21:09.367Z,7.10
2019-03-17T19:23:39.104Z,7.10
2019-03-17T19:26:08.251Z,7.10
2019-03-17T19:28:37.438Z,7.10
2019-03-17T19:31:06.570Z,7.10
2019-03-17T19:33:37.298Z,7.10
2019-03-17T19:36:06.597Z,7.10
2019-03-17T19:38:36.026Z,7.10
2019-03-17T19:41:07.047Z,7.10
2019-03-17T19:43:37.405Z,7.10
2019-03-17T19:46:06.397Z,7.00
2019-03-17T19:48:35.691Z,7.00
2019-03-17T19:51:04.766Z,6.90
2019-03-17T19:53:37.114Z,6.90
2019-03-17T19:56:06.665Z,6.80
2019-03-17T19:58:36.294Z,6.80
2019-03-17T20:01:11.817Z,6.80
2019-03-17T20:03:41.123Z,6.80
2019-03-17T20:06:11.227Z,6.80
2019-03-17T20:08:40.265Z,6.80
2019-03-17T20:11:09.442Z,6.80
2019-03-17T20:13:38.485Z,6.80
2019-03-17T20:16:09.903Z,6.70
2019-03-17T20:18:41.430Z,6.70
2019-03-17T20:21:10.837Z,6.70
2019-03-17T20:23:39.900Z,6.70
2019-03-17T20:26:08.931Z,6.70
2019-03-17T20:28:38.348Z,6.70
2019-03-17T20:31:07.740Z,6.70
2019-03-17T20:33:36.822Z,6.60
2019-03-17T20:36:07.596Z,6.60
2019-03-17T20:38:36.774Z,6.60
2019-03-17T20:41:06.274Z,6.50
2019-03-17T20:43:35.532Z,6.50
2019-03-17T20:46:04.639Z,6.50
2019-03-17T20:48:35.090Z,6.50
2019-03-17T20:51:04.007Z,6.40
2019-03-17T20:53:32.882Z,6.50
2019-03-17T20:56:01.900Z,6.40
2019-03-17T20:58:31.017Z,6.40
2019-03-17T21:01:00.750Z,6.30
2019-03-17T21:03:29.792Z,6.30
2019-03-17T21:05:58.860Z,6.30
2019-03-17T21:08:27.764Z,6.30
2019-03-17T21:10:56.800Z,6.20
2019-03-17T21:13:28.665Z,6.20
2019-03-17T21:15:57.605Z,6.20
2019-03-17T21:18:26.719Z,6.20
2019-03-17T21:20:55.610Z,6.10
2019-03-17T21:23:24.681Z,6.10
2019-03-17T21:25:53.772Z,6.10
2019-03-17T21:28:22.798Z,6.10
2019-03-17T21:30:51.729Z,6.00
2019-03-17T21:33:20.624Z,6.00
2019-03-17T21:35:49.551Z,6.00
2019-03-17T21:38:18.484Z,6.00
2019-03-17T21:41:01.641Z,6.00
2019-03-17T21:43:17.886Z,6.00
2019-03-17T21:45:46.836Z,5.90
2019-03-17T21:48:15.902Z,5.90
2019-03-17T21:50:44.959Z,5.90
2019-03-17T21:53:13.918Z,5.90
2019-03-17T21:55:42.773Z,6.00
2019-03-17T21:58:11.610Z,6.00
2019-03-17T22:00:42.990Z,6.00
2019-03-17T22:03:20.749Z,5.90
2019-03-17T22:05:49.683Z,5.90
2019-03-17T22:08:18.678Z,5.90
2019-03-17T22:10:48.577Z,5.80
2019-03-17T22:13:17.486Z,5.80
2019-03-17T22:15:46.322Z,5.70
2019-03-17T22:18:15.169Z,5.70
2019-03-17T22:20:44.011Z,5.70
2019-03-17T22:23:13.521Z,5.70
2019-03-17T22:25:42.376Z,5.70
2019-03-17T22:28:11.353Z,5.70
2019-03-17T22:30:40.233Z,5.70
2019-03-17T22:33:09.049Z,5.70
2019-03-17T22:35:37.915Z,5.70
2019-03-17T22:38:06.844Z,5.80
2019-03-17T22:40:38.762Z,5.80
2019-03-17T22:43:07.761Z,5.80
2019-03-17T22:45:36.719Z,5.80
2019-03-17T22:48:08.182Z,5.80
2019-03-17T22:50:41.875Z,5.80
2019-03-17T22:53:13.355Z,5.80
2019-03-17T22:55:42.243Z,5.80
2019-03-17T22:58:11.319Z,5.80
2019-03-17T23:00:44.218Z,5.80
2019-03-17T23:03:14.156Z,5.80
2019-03-17T23:05:43.092Z,5.80
2019-03-17T23:08:11.992Z,5.80
2019-03-17T23:10:40.781Z,5.80
2019-03-17T23:13:09.651Z,5.70
2019-03-17T23:15:38.478Z,5.70
2019-03-17T23:18:07.350Z,5.70
2019-03-17T23:20:36.272Z,5.70
2019-03-17T23:23:05.166Z,5.70
2019-03-17T23:25:34.089Z,5.60
2019-03-17T23:28:03.022Z,5.60
2019-03-17T23:30:31.988Z,5.60
2019-03-17T23:33:00.893Z,5.50
2019-03-17T23:35:29.915Z,5.50
2019-03-17T23:37:58.901Z,5.40
2019-03-17T23:40:27.791Z,5.30
2019-03-17T23:42:56.717Z,5.30
2019-03-17T23:45:25.563Z,5.20
2019-03-17T23:47:54.477Z,5.20
2019-03-17T23:50:23.435Z,5.20
2019-03-17T23:52:52.246Z,5.20
2019-03-17T23:55:21.123Z,5.10
2019-03-17T23:57:50.010Z,5.20
